page 4753 of 1016778 registered users

eBook PostsUsers

  1. 0artcatsup86 registered @ 2012-12-03 20:10:02, last login @ 2012-12-03 20:10:02
  2. 0saluddepil3 registered @ 2012-12-03 20:11:11, last login @ 2012-12-03 20:11:11
  3. 0knightcotton92 registered @ 2012-12-03 20:12:10, last login @ 2012-12-03 20:12:10
  4. 0gongspider97 registered @ 2012-12-03 20:12:52, last login @ 2012-12-03 20:12:52
  5. 0samarsenal92 registered @ 2012-12-03 20:15:04, last login @ 2012-12-03 20:15:04
  6. 0arachsol registered @ 2012-12-03 20:15:50, last login @ 2012-12-03 20:15:50
  7. 0basket7sale registered @ 2012-12-03 20:16:16, last login @ 2012-12-03 20:16:16
  8. 0carbonbulb38 registered @ 2012-12-03 20:16:58, last login @ 2012-12-03 20:16:58
  9. 0gauge00crowd registered @ 2012-12-03 20:17:56, last login @ 2012-12-03 20:17:56
  10. 0japandraw1 registered @ 2012-12-03 20:18:09, last login @ 2012-12-03 20:18:09
  11. 0chestindex78 registered @ 2012-12-03 20:19:03, last login @ 2012-12-03 20:19:03
  12. 0start55friend registered @ 2012-12-03 20:19:16, last login @ 2012-12-03 20:19:16
  13. 0select5brain registered @ 2012-12-03 20:19:34, last login @ 2012-12-03 20:19:34
  14. 0pot92comb registered @ 2012-12-03 20:21:08, last login @ 2012-12-03 20:21:08
  15. 0hemprub8 registered @ 2012-12-03 20:21:13, last login @ 2012-12-03 20:21:13
  16. 0bird06doubt registered @ 2012-12-03 20:22:15, last login @ 2012-12-03 20:31:06
  17. 0polandhorn20 registered @ 2012-12-03 20:22:24, last login @ 2012-12-03 20:22:24
  18. 0furplot55 registered @ 2012-12-03 20:22:40, last login @ 2012-12-03 20:22:40
  19. 0epoxyink24 registered @ 2012-12-03 20:23:04, last login @ 2012-12-03 20:23:04
  20. 0voyagewillow9 registered @ 2012-12-03 20:23:26, last login @ 2012-12-03 20:23:26
  21. 0hope0loss registered @ 2012-12-03 20:26:40, last login @ 2012-12-03 21:00:10
  22. 0knife2town registered @ 2012-12-03 20:27:07, last login @ 2012-12-03 20:27:07
  23. 0litter40rat registered @ 2012-12-03 20:28:32, last login @ 2012-12-03 20:28:32
  24. 0muscleparcel18 registered @ 2012-12-03 20:28:40, last login @ 2012-12-03 20:28:40
  25. 0avenue0quart registered @ 2012-12-03 20:31:08, last login @ 2012-12-03 20:31:08
  26. 024hourcialis registered @ 2012-12-03 20:32:06, last login @ 2012-12-03 20:32:06
  27. 0rewardfrown04 registered @ 2012-12-03 20:32:35, last login @ 2012-12-03 20:32:35
  28. 0pilot5hyena registered @ 2012-12-03 20:32:59, last login @ 2012-12-03 20:32:59
  29. 0menpigeon56 registered @ 2012-12-03 20:33:29, last login @ 2012-12-03 20:33:29
  30. 0market23makeup registered @ 2012-12-03 20:34:03, last login @ 2012-12-03 20:34:03
  31. 0weedriver57 registered @ 2012-12-03 20:34:47, last login @ 2012-12-03 20:34:47
  32. 0lathecloth31 registered @ 2012-12-03 20:35:09, last login @ 2012-12-03 20:35:09
  33. 0north9bread registered @ 2012-12-03 20:35:17, last login @ 2012-12-03 20:35:17
  34. 0karateprison5 registered @ 2012-12-03 20:36:38, last login @ 2012-12-03 20:36:38
  35. 0carolclutch23 registered @ 2012-12-03 20:37:02, last login @ 2012-12-03 20:37:02
  36. 0steven4box registered @ 2012-12-03 20:37:13, last login @ 2012-12-03 20:59:11
  37. 0beech04cougar registered @ 2012-12-03 20:38:12, last login @ 2012-12-03 20:38:12
  38. 0sweatneymiyplt registered @ 2012-12-03 20:39:09, last login @ 2012-12-03 20:39:09
  39. 0nepal80act registered @ 2012-12-03 20:39:44, last login @ 2012-12-03 20:48:47
  40. 0brand71crate registered @ 2012-12-03 20:40:24, last login @ 2012-12-03 20:40:24
  41. 0banker40stop registered @ 2012-12-03 20:40:35, last login @ 2012-12-03 20:40:35
  42. 0stickkiss94 registered @ 2012-12-03 20:41:51, last login @ 2012-12-03 20:41:51
  43. 0blood2yam registered @ 2012-12-03 20:41:53, last login @ 2012-12-03 20:41:53
  44. 0rabbi0debt registered @ 2012-12-03 20:41:56, last login @ 2012-12-03 20:41:56
  45. 0greek16alley registered @ 2012-12-03 20:42:19, last login @ 2012-12-03 20:42:19
  46. 0AntonioHKraft registered @ 2012-12-03 20:43:46, last login @ 2012-12-03 20:52:20
  47. 0knightpest73 registered @ 2012-12-03 20:44:28, last login @ 2012-12-03 20:44:28
  48. 0sleetsteam77 registered @ 2012-12-03 20:46:18, last login @ 2012-12-03 20:46:18
  49. 0kitty7tail registered @ 2012-12-03 20:46:31, last login @ 2012-12-03 20:46:31
  50. 0wave54swan registered @ 2012-12-03 20:47:25, last login @ 2012-12-03 20:47:25
  51. 0nationdirt89 registered @ 2012-12-03 20:49:04, last login @ 2012-12-03 20:49:04
  52. 0bay3sun registered @ 2012-12-03 20:51:07, last login @ 2012-12-03 20:51:07
  53. 0dime84crow registered @ 2012-12-03 20:53:39, last login @ 2012-12-03 20:53:39
  54. 0handle0greek registered @ 2012-12-03 20:53:43, last login @ 2012-12-03 20:53:43
  55. 0emerycard93 registered @ 2012-12-03 20:53:48, last login @ 2012-12-03 20:53:48
  56. 0shearstown7 registered @ 2012-12-03 20:53:49, last login @ 2012-12-03 20:53:49
  57. 0fuxiaoling1982 registered @ 2012-12-03 20:57:05, last login @ 2012-12-03 20:57:05
  58. 0credit59book registered @ 2012-12-03 20:59:45, last login @ 2012-12-03 20:59:45
  59. 0flute09pet registered @ 2012-12-03 21:05:00, last login @ 2012-12-03 21:38:12
  60. 0lauyjor17 registered @ 2012-12-03 21:07:02, last login @ 2012-12-03 21:07:02
  61. 0death37sudan registered @ 2012-12-03 21:08:26, last login @ 2012-12-03 21:08:26
  62. 0cave0sheep registered @ 2012-12-03 21:09:12, last login @ 2012-12-03 21:09:12
  63. 0can8bean registered @ 2012-12-03 21:10:10, last login @ 2012-12-03 21:10:10
  64. 0susangrease5 registered @ 2012-12-03 21:10:51, last login @ 2012-12-03 21:10:51
  65. 0virgo2lan registered @ 2012-12-03 21:11:25, last login @ 2012-12-03 21:11:25
  66. 0leafdoor8 registered @ 2012-12-03 21:11:28, last login @ 2012-12-03 21:11:28
  67. 0brianlace23 registered @ 2012-12-03 21:11:42, last login @ 2012-12-03 21:11:42
  68. 0quiet11supply registered @ 2012-12-03 21:12:02, last login @ 2012-12-03 21:12:02
  69. 0porchcry76 registered @ 2012-12-03 21:13:39, last login @ 2012-12-03 21:13:39
  70. 0sundaycheek30 registered @ 2012-12-03 21:14:45, last login @ 2012-12-03 21:14:45
  71. 0salt18angora registered @ 2012-12-03 21:16:05, last login @ 2012-12-03 21:16:05
  72. 0lift2girdle registered @ 2012-12-03 21:16:08, last login @ 2012-12-03 21:16:08
  73. 0school5pond registered @ 2012-12-03 21:17:10, last login @ 2012-12-03 21:17:10
  74. 0lifthawk0 registered @ 2012-12-03 21:18:21, last login @ 2012-12-03 21:18:21
  75. 0bowltemple7 registered @ 2012-12-03 21:18:23, last login @ 2012-12-03 21:18:23
  76. 0angletrick80 registered @ 2012-12-03 21:18:54, last login @ 2012-12-03 21:18:54
  77. 0minutedew52 registered @ 2012-12-03 21:19:05, last login @ 2012-12-03 21:19:05
  78. 0damagewarm87 registered @ 2012-12-03 21:19:51, last login @ 2012-12-03 21:19:51
  79. 0rabbit8select registered @ 2012-12-03 21:20:32, last login @ 2012-12-03 21:20:32
  80. 0NADIKATLA registered @ 2012-12-03 21:21:19, last login @ 2012-12-03 21:21:19
  81. 0radar46bagel registered @ 2012-12-03 21:21:44, last login @ 2012-12-03 21:21:44
  82. 0eagleice1 registered @ 2012-12-03 21:24:02, last login @ 2012-12-03 21:24:02
  83. 0quietweasel2 registered @ 2012-12-03 21:24:03, last login @ 2012-12-03 21:24:03
  84. 0thumb8son registered @ 2012-12-03 21:25:05, last login @ 2012-12-03 21:25:05
  85. 0pliercolt05 registered @ 2012-12-03 21:25:51, last login @ 2012-12-03 21:25:51
  86. 0oilmay78 registered @ 2012-12-03 21:25:55, last login @ 2012-12-03 21:25:55
  87. 0june8bomber registered @ 2012-12-03 21:26:02, last login @ 2012-12-03 21:26:02
  88. 0search8ring registered @ 2012-12-03 21:27:06, last login @ 2012-12-03 21:27:06
  89. 0walk68rabbit registered @ 2012-12-03 21:27:54, last login @ 2012-12-03 21:27:54
  90. 0grass9harp registered @ 2012-12-03 21:28:30, last login @ 2012-12-03 21:28:30
  91. 0babieslaugh00 registered @ 2012-12-03 21:28:40, last login @ 2012-12-03 21:28:40
  92. 0arm1makeup registered @ 2012-12-03 21:29:22, last login @ 2012-12-03 21:29:22
  93. 0weekdeal7 registered @ 2012-12-03 21:29:38, last login @ 2012-12-03 21:29:38
  94. 0vasebeard3 registered @ 2012-12-03 21:30:17, last login @ 2012-12-03 21:30:17
  95. 0penbone23 registered @ 2012-12-03 21:30:56, last login @ 2012-12-03 21:30:56
  96. 0smile96white registered @ 2012-12-03 21:32:14, last login @ 2012-12-03 21:32:14
  97. 0jennahausweb1984 registered @ 2012-12-03 21:32:32, last login @ 2012-12-03 21:32:32
  98. 0julypvc91 registered @ 2012-12-03 21:32:46, last login @ 2012-12-03 21:32:46
  99. 0spyclock61 registered @ 2012-12-03 21:33:01, last login @ 2012-12-03 21:33:01
  100. 0chillmosque7 registered @ 2012-12-03 21:33:29, last login @ 2012-12-03 21:33:29
  101. 0windowwriter53 registered @ 2012-12-03 21:36:29, last login @ 2012-12-03 21:36:29

More...

[4763] [4762] [4761] [4760] [4759] [4758] [4757] [4756] [4755] [4754] [4753] [4752] [4751] [4750] [4749] [4748] [4747] [4746] [4745] [4744] ...[1]
Back to Top